Pagina principale
METAR-TAF:

METAR-TAF

Aeroporti :

Aeroporto di Crotone

Crotone, Italia

latitudine: 39-00N, longitudine: 017-04E, altezza: 155 m

Osservazione

Il bollettino è stato emesso 32 minuti fa, alle 16:50 UTC
Vento 7 kt da sud-ovest, variando fra sud e ovest/sud-ovest
Temperature 11°C
Umidità 71%
Pressione 1021 hPa
Visibilità 10 km o più
nessuna nube inferiore a 1500 m e nessun cumulonembo

METAR: LIBC 201650Z 22007KT 180V250 CAVOK 11/06 Q1021

Ora: 18:22 (17:22 UTC)

Previsione

Il bollettino è stato emesso 6 ore e 22 minuti fa, alle 11:00 UTC
Previsione valida dal 20 alle 12 UTC al 21 alle 12 UTC
Vento 12 kt da sud-ovest
Visibilità 10 km o più
Poco nuvoloso ad un'altezza di 4000 ft

TAF: LIBC 201100Z 2012/2112 22012KT 9999 FEW040

Osservazioni e previsioni meteorologiche di più di 4000 aeroporti (messaggi METAR e TAF).

Le stazioni disponibili sono rappresentate dai dischi gialli e rossi sulla carta.

Puntare il mouse per vedere il nome della stazione.

Clicca sopra per visualizzare le osservazioni e previsioni meteorologiche.

Per cambiare la mappa : fare clic sui pulsanti verdi con una croce nera per ingrandire, il pulsante verde con un trattino per diminuire, o sulla freccia verde per le mappe adiacenti.


METAR-TAF: